METAR Data
IDs: Format: Raw Decoded Include TAF

Data at: 0246 UTC 25 Feb 2021

KLPR 250153Z AUTO 31016G23KT 10SM OVC035 03/M01 A3001 RMK AO2 SLP168 T00331011